createdAt,value
2019-04-16T00:00:26.450Z,4.90
2019-04-16T00:02:57.335Z,4.90
2019-04-16T00:05:34.465Z,4.90
2019-04-16T00:08:19.478Z,4.90
2019-04-16T00:10:40.030Z,4.90
2019-04-16T00:13:28.985Z,4.80
2019-04-16T00:15:58.589Z,4.80
2019-04-16T00:18:27.480Z,4.80
2019-04-16T00:21:13.962Z,4.80
2019-04-16T00:23:46.737Z,4.80
2019-04-16T00:26:15.120Z,4.80
2019-04-16T00:28:44.258Z,4.70
2019-04-16T00:31:13.137Z,4.70
2019-04-16T00:33:42.827Z,4.60
2019-04-16T00:36:12.563Z,4.60
2019-04-16T00:38:43.293Z,4.60
2019-04-16T00:41:12.288Z,4.60
2019-04-16T00:43:44.023Z,4.60
2019-04-16T00:46:12.238Z,4.60
2019-04-16T00:48:41.521Z,4.50
2019-04-16T00:51:10.518Z,4.50
2019-04-16T00:53:39.759Z,4.50
2019-04-16T00:56:09.509Z,4.50
2019-04-16T00:58:38.516Z,4.50
2019-04-16T01:01:07.423Z,4.40
2019-04-16T01:03:36.257Z,4.40
2019-04-16T01:06:07.978Z,4.30
2019-04-16T01:08:35.827Z,4.30
2019-04-16T01:11:04.767Z,4.30
2019-04-16T01:13:33.711Z,4.30
2019-04-16T01:16:03.800Z,4.20
2019-04-16T01:18:33.238Z,4.20
2019-04-16T01:21:03.971Z,4.10
2019-04-16T01:23:32.765Z,4.10
2019-04-16T01:26:01.654Z,4.10
2019-04-16T01:28:32.681Z,4.10
2019-04-16T01:31:08.390Z,4.10
2019-04-16T01:33:55.572Z,4.00
2019-04-16T01:36:31.815Z,4.00
2019-04-16T01:39:15.614Z,4.00
2019-04-16T01:41:33.070Z,3.90
2019-04-16T01:44:02.029Z,3.90
2019-04-16T01:46:32.875Z,3.80
2019-04-16T01:49:01.921Z,3.90
2019-04-16T01:51:31.097Z,3.80
2019-04-16T01:54:00.114Z,3.80
2019-04-16T01:56:29.184Z,3.80
2019-04-16T01:58:58.448Z,3.80
2019-04-16T02:01:27.708Z,3.80
2019-04-16T02:03:56.599Z,3.70
2019-04-16T02:06:26.552Z,3.70
2019-04-16T02:08:55.623Z,3.70
2019-04-16T02:11:24.603Z,3.70
2019-04-16T02:13:53.606Z,3.60
2019-04-16T02:16:25.168Z,3.50
2019-04-16T02:18:53.314Z,3.50
2019-04-16T02:21:22.307Z,3.50
2019-04-16T02:23:51.222Z,3.40
2019-04-16T02:26:20.552Z,3.40
2019-04-16T02:28:50.626Z,3.40
2019-04-16T02:31:20.256Z,3.30
2019-04-16T02:33:49.253Z,3.30
2019-04-16T02:36:18.025Z,3.30
2019-04-16T02:38:52.742Z,3.30
2019-04-16T02:41:17.407Z,3.20
2019-04-16T02:43:46.341Z,3.20
2019-04-16T02:46:15.449Z,3.20
2019-04-16T02:48:50.216Z,3.10
2019-04-16T02:51:19.780Z,3.10
2019-04-16T02:53:50.514Z,3.00
2019-04-16T02:56:37.118Z,3.00
2019-04-16T02:59:13.044Z,3.00
2019-04-16T03:01:49.453Z,3.00
2019-04-16T03:04:26.748Z,2.90
2019-04-16T03:06:53.693Z,2.90
2019-04-16T03:09:22.456Z,2.90
2019-04-16T03:11:51.551Z,2.90
2019-04-16T03:14:20.443Z,2.80
2019-04-16T03:17:02.652Z,2.80
2019-04-16T03:19:33.082Z,2.80
2019-04-16T03:22:03.301Z,2.80
2019-04-16T03:24:32.728Z,2.70
2019-04-16T03:27:04.452Z,2.70
2019-04-16T03:29:32.155Z,2.70
2019-04-16T03:32:01.131Z,2.70
2019-04-16T03:34:30.028Z,2.70
2019-04-16T03:37:01.939Z,2.70
2019-04-16T03:39:30.806Z,2.70
2019-04-16T03:41:59.754Z,2.70
2019-04-16T03:44:28.649Z,2.60
2019-04-16T03:46:57.643Z,2.60
2019-04-16T03:49:27.776Z,2.60
2019-04-16T03:51:57.591Z,2.60
2019-04-16T03:54:26.575Z,2.60
2019-04-16T03:56:55.681Z,2.60
2019-04-16T03:59:24.563Z,2.60
2019-04-16T04:01:53.556Z,2.50
2019-04-16T04:04:22.554Z,2.50
2019-04-16T04:06:51.556Z,2.50
2019-04-16T04:09:22.159Z,2.50
2019-04-16T04:11:51.073Z,2.40
2019-04-16T04:14:23.282Z,2.40
2019-04-16T04:16:50.608Z,2.40
2019-04-16T04:19:19.492Z,2.40
2019-04-16T04:21:50.674Z,2.40
2019-04-16T04:24:19.211Z,2.40
2019-04-16T04:26:48.167Z,2.30
2019-04-16T04:29:17.097Z,2.30
2019-04-16T04:31:46.199Z,2.30
2019-04-16T04:34:17.183Z,2.30
2019-04-16T04:36:45.627Z,2.30
2019-04-16T04:39:15.724Z,2.30
2019-04-16T04:41:44.907Z,2.40
2019-04-16T04:44:14.046Z,2.40
2019-04-16T04:46:43.278Z,2.40
2019-04-16T04:49:13.448Z,2.40
2019-04-16T04:51:43.500Z,2.40
2019-04-16T04:54:12.629Z,2.40
2019-04-16T04:56:41.425Z,2.50
2019-04-16T04:59:10.190Z,2.50
2019-04-16T05:01:41.962Z,2.50
2019-04-16T05:04:11.299Z,2.50
2019-04-16T05:06:41.686Z,2.50
2019-04-16T05:09:10.599Z,2.60
2019-04-16T05:11:39.379Z,2.60
2019-04-16T05:14:08.301Z,2.70
2019-04-16T05:16:37.113Z,2.80
2019-04-16T05:19:05.956Z,2.90
2019-04-16T05:21:34.807Z,3.00
2019-04-16T05:24:03.745Z,3.00
2019-04-16T05:26:33.566Z,3.10
2019-04-16T05:29:17.019Z,3.20
2019-04-16T05:31:44.871Z,3.30
2019-04-16T05:34:16.994Z,3.50
2019-04-16T05:36:47.713Z,3.70
2019-04-16T05:39:14.730Z,3.80
2019-04-16T05:41:43.532Z,3.90
2019-04-16T05:44:12.512Z,4.00
2019-04-16T05:46:46.398Z,4.00
2019-04-16T05:49:11.929Z,4.10
2019-04-16T05:51:41.675Z,4.20
2019-04-16T05:54:27.406Z,4.40
2019-04-16T05:56:57.857Z,4.70
2019-04-16T05:59:26.724Z,5.10
2019-04-16T06:02:15.134Z,5.30
2019-04-16T06:04:42.779Z,5.30
2019-04-16T06:07:11.623Z,5.40
2019-04-16T06:09:41.514Z,5.60
2019-04-16T06:12:11.170Z,5.90
2019-04-16T06:14:41.710Z,6.40
2019-04-16T06:17:12.209Z,7.20
2019-04-16T06:19:47.432Z,8.00
2019-04-16T06:22:30.195Z,8.40
2019-04-16T06:25:16.981Z,8.60
2019-04-16T06:28:04.847Z,8.90
2019-04-16T06:30:51.355Z,9.20
2019-04-16T06:33:27.821Z,9.00
2019-04-16T06:35:58.207Z,8.80
2019-04-16T06:38:31.653Z,8.40
2019-04-16T06:41:18.348Z,8.10
2019-04-16T06:43:58.283Z,7.90
2019-04-16T06:46:29.732Z,7.80
2019-04-16T06:49:17.793Z,7.70
2019-04-16T06:51:59.684Z,7.80
2019-04-16T06:54:33.199Z,7.90
2019-04-16T06:57:12.948Z,8.10
2019-04-16T06:59:52.195Z,8.30
2019-04-16T07:02:43.071Z,8.30
2019-04-16T07:05:32.124Z,8.40
2019-04-16T07:08:02.049Z,8.60
2019-04-16T07:10:44.058Z,8.90
2019-04-16T07:13:03.007Z,9.20
2019-04-16T07:15:31.769Z,9.50
2019-04-16T07:18:02.520Z,9.70
2019-04-16T07:20:31.093Z,9.90
2019-04-16T07:22:59.885Z,9.90
2019-04-16T07:25:29.749Z,9.90
2019-04-16T07:28:00.630Z,9.80
2019-04-16T07:30:40.548Z,9.60
2019-04-16T07:33:11.356Z,9.60
2019-04-16T07:35:53.449Z,9.60
2019-04-16T07:38:26.535Z,9.60
2019-04-16T07:40:57.102Z,9.60
2019-04-16T07:43:33.327Z,9.70
2019-04-16T07:46:18.818Z,9.80
2019-04-16T07:48:55.701Z,10.00
2019-04-16T07:51:26.200Z,10.20
2019-04-16T07:54:05.499Z,10.40
2019-04-16T07:56:34.960Z,10.60
2019-04-16T07:59:03.972Z,10.90
2019-04-16T08:01:32.896Z,11.10
2019-04-16T08:04:03.176Z,11.20
2019-04-16T08:06:32.238Z,11.20
2019-04-16T08:09:01.123Z,11.30
2019-04-16T08:11:29.935Z,11.40
2019-04-16T08:13:58.856Z,11.40
2019-04-16T08:16:27.715Z,11.60
2019-04-16T08:18:56.713Z,11.70
2019-04-16T08:21:25.620Z,11.90
2019-04-16T08:24:11.305Z,12.10
2019-04-16T08:26:41.556Z,12.20
2019-04-16T08:29:10.692Z,12.40
2019-04-16T08:31:44.516Z,12.50
2019-04-16T08:34:11.718Z,12.60
2019-04-16T08:36:40.569Z,12.70
2019-04-16T08:39:11.415Z,13.00
2019-04-16T08:41:40.247Z,13.20
2019-04-16T08:44:10.408Z,13.40
2019-04-16T08:46:40.408Z,13.60
2019-04-16T08:49:10.059Z,13.70
2019-04-16T08:51:38.819Z,13.80
2019-04-16T08:54:07.898Z,14.00
2019-04-16T08:56:36.828Z,14.10
2019-04-16T08:59:09.605Z,14.20
2019-04-16T09:01:36.272Z,14.20
2019-04-16T09:04:05.283Z,14.30
2019-04-16T09:06:34.134Z,14.40
2019-04-16T09:09:14.636Z,14.50
2019-04-16T09:11:39.898Z,14.60
2019-04-16T09:14:08.794Z,14.70
2019-04-16T09:16:39.267Z,14.70
2019-04-16T09:19:09.725Z,14.70
2019-04-16T09:21:43.455Z,14.70
2019-04-16T09:24:22.690Z,14.80
2019-04-16T09:27:12.414Z,14.90
2019-04-16T09:29:58.265Z,14.90
2019-04-16T09:32:31.219Z,14.90
2019-04-16T09:35:14.222Z,14.80
2019-04-16T09:37:58.934Z,14.90
2019-04-16T09:40:29.456Z,15.00
2019-04-16T09:42:59.748Z,14.90
2019-04-16T09:45:28.648Z,15.00
2019-04-16T09:47:57.571Z,15.10
2019-04-16T09:50:26.390Z,15.20
2019-04-16T09:52:56.157Z,15.30
2019-04-16T09:55:25.300Z,15.20
2019-04-16T09:57:54.167Z,15.00
2019-04-16T10:00:24.700Z,15.00
2019-04-16T10:02:55.197Z,15.20
2019-04-16T10:05:26.553Z,15.40
2019-04-16T10:07:56.918Z,15.50
2019-04-16T10:10:28.278Z,15.70
2019-04-16T10:12:55.811Z,15.60
2019-04-16T10:15:24.596Z,15.70
2019-04-16T10:17:53.611Z,15.70
2019-04-16T10:20:22.473Z,15.70
2019-04-16T10:22:51.366Z,15.70
2019-04-16T10:25:20.338Z,15.80
2019-04-16T10:27:50.894Z,15.90
2019-04-16T10:30:24.399Z,16.00
2019-04-16T10:32:53.386Z,16.00
2019-04-16T10:35:22.521Z,16.10
2019-04-16T10:37:51.459Z,16.30
2019-04-16T10:40:21.869Z,16.10
2019-04-16T10:43:04.595Z,16.10
2019-04-16T10:45:44.167Z,16.00
2019-04-16T10:48:30.872Z,16.10
2019-04-16T10:51:16.566Z,16.30
2019-04-16T10:54:02.074Z,16.30
2019-04-16T10:56:49.035Z,16.40
2019-04-16T10:59:35.758Z,16.60
2019-04-16T11:02:12.303Z,16.70
2019-04-16T11:04:43.300Z,16.80
2019-04-16T11:07:14.523Z,16.90
2019-04-16T11:09:43.294Z,17.00
2019-04-16T11:12:12.253Z,17.00
2019-04-16T11:14:41.169Z,16.80
2019-04-16T11:17:10.165Z,16.90
2019-04-16T11:19:39.285Z,17.00
2019-04-16T11:22:08.367Z,17.00
2019-04-16T11:24:37.420Z,17.10
2019-04-16T11:27:06.342Z,17.00
2019-04-16T11:29:35.173Z,17.10
2019-04-16T11:32:04.300Z,17.30
2019-04-16T11:34:33.159Z,17.40
2019-04-16T11:37:07.469Z,17.50
2019-04-16T11:39:32.623Z,17.50
2019-04-16T11:42:01.525Z,17.40
2019-04-16T11:44:30.452Z,17.40
2019-04-16T11:46:59.325Z,17.50
2019-04-16T11:49:28.248Z,17.50
2019-04-16T11:51:58.152Z,17.40
2019-04-16T11:54:27.082Z,17.30
2019-04-16T11:56:59.506Z,17.20
2019-04-16T11:59:26.426Z,16.90
2019-04-16T12:02:09.193Z,16.90
2019-04-16T12:04:58.827Z,16.90
2019-04-16T12:07:29.322Z,16.80
2019-04-16T12:10:15.726Z,16.50
2019-04-16T12:13:04.712Z,16.50
2019-04-16T12:15:47.103Z,16.60
2019-04-16T12:18:20.742Z,16.50
2019-04-16T12:20:57.204Z,16.60
2019-04-16T12:23:36.584Z,16.70
2019-04-16T12:26:12.967Z,16.70
2019-04-16T12:28:46.216Z,16.90
2019-04-16T12:31:32.836Z,16.60
2019-04-16T12:34:15.467Z,16.70
2019-04-16T12:36:57.798Z,16.70
2019-04-16T12:39:28.311Z,16.70
2019-04-16T12:42:00.171Z,16.80
2019-04-16T12:44:45.214Z,16.80
2019-04-16T12:47:17.913Z,16.70
2019-04-16T12:49:53.869Z,16.50
2019-04-16T12:52:24.270Z,16.70
2019-04-16T12:55:13.296Z,16.70
2019-04-16T12:57:47.282Z,16.80
2019-04-16T13:00:34.079Z,16.70
2019-04-16T13:03:18.147Z,16.70
2019-04-16T13:05:54.687Z,16.60
2019-04-16T13:08:34.090Z,16.60
2019-04-16T13:11:21.805Z,16.70
2019-04-16T13:13:52.291Z,16.60
2019-04-16T13:16:22.723Z,16.60
2019-04-16T13:18:59.199Z,16.70
2019-04-16T13:21:29.690Z,16.70
2019-04-16T13:24:00.101Z,16.90
2019-04-16T13:26:36.396Z,17.00
2019-04-16T13:29:06.793Z,17.10
2019-04-16T13:31:36.407Z,17.30
2019-04-16T13:34:06.173Z,17.30
2019-04-16T13:36:35.047Z,17.30
2019-04-16T13:39:09.870Z,17.30
2019-04-16T13:41:39.561Z,17.30
2019-04-16T13:44:10.058Z,17.30
2019-04-16T13:46:39.006Z,17.30
2019-04-16T13:49:10.244Z,17.30
2019-04-16T13:51:39.112Z,17.40
2019-04-16T13:54:12.133Z,17.60
2019-04-16T13:56:50.426Z,17.90
2019-04-16T13:59:23.094Z,17.80
2019-04-16T14:01:53.546Z,17.90
2019-04-16T14:04:22.452Z,18.00
2019-04-16T14:06:51.333Z,18.00
2019-04-16T14:09:20.213Z,18.20
2019-04-16T14:11:51.294Z,18.40
2019-04-16T14:14:22.579Z,18.30
2019-04-16T14:16:50.238Z,18.30
2019-04-16T14:19:19.075Z,18.30
2019-04-16T14:21:47.968Z,18.30
2019-04-16T14:24:16.859Z,18.30
2019-04-16T14:26:45.748Z,18.30
2019-04-16T14:29:14.748Z,18.30
2019-04-16T14:31:46.063Z,18.40
2019-04-16T14:34:18.127Z,18.40
2019-04-16T14:37:31.643Z,18.40
2019-04-16T14:40:02.287Z,18.30
2019-04-16T14:42:31.185Z,18.30
2019-04-16T14:45:20.094Z,18.30
2019-04-16T14:47:49.059Z,18.40
2019-04-16T14:50:19.893Z,18.40
2019-04-16T14:52:48.488Z,18.40
2019-04-16T14:55:35.411Z,18.20
2019-04-16T14:58:05.918Z,18.10
2019-04-16T15:00:39.338Z,18.00
2019-04-16T15:03:15.909Z,18.00
2019-04-16T15:05:55.335Z,18.10
2019-04-16T15:08:37.765Z,18.10
2019-04-16T15:11:11.240Z,18.10
2019-04-16T15:13:47.635Z,18.00
2019-04-16T15:16:22.360Z,18.00
2019-04-16T15:19:04.826Z,17.90
2019-04-16T15:21:35.265Z,17.90
2019-04-16T15:24:05.671Z,18.00
2019-04-16T15:26:38.694Z,18.10
2019-04-16T15:29:11.537Z,18.00
2019-04-16T15:31:44.628Z,18.00
2019-04-16T15:34:15.111Z,18.10
2019-04-16T15:36:49.916Z,18.00
2019-04-16T15:39:17.805Z,17.90
2019-04-16T15:42:04.619Z,17.70
2019-04-16T15:44:35.152Z,17.70
2019-04-16T15:47:21.984Z,17.50
2019-04-16T15:49:58.530Z,17.30
2019-04-16T15:52:31.701Z,17.10
2019-04-16T15:55:14.423Z,17.00
2019-04-16T15:58:04.624Z,16.90
2019-04-16T16:00:35.070Z,16.70
2019-04-16T16:03:05.758Z,16.70
2019-04-16T16:05:45.304Z,16.70
2019-04-16T16:08:18.640Z,16.60
2019-04-16T16:10:49.127Z,16.50
2019-04-16T16:13:17.962Z,16.40
2019-04-16T16:15:46.844Z,16.30
2019-04-16T16:18:15.821Z,16.30
2019-04-16T16:20:44.739Z,16.20
2019-04-16T16:23:13.518Z,16.10
2019-04-16T16:25:42.295Z,16.10
2019-04-16T16:28:11.178Z,16.10
2019-04-16T16:30:40.071Z,16.10
2019-04-16T16:33:08.893Z,16.10
2019-04-16T16:35:37.639Z,16.10
2019-04-16T16:38:06.562Z,16.00
2019-04-16T16:40:35.659Z,16.10
2019-04-16T16:43:07.960Z,16.10
2019-04-16T16:45:53.102Z,16.00
2019-04-16T16:48:23.666Z,16.00
2019-04-16T16:50:52.511Z,16.00
2019-04-16T16:53:39.231Z,15.90
2019-04-16T16:56:09.817Z,15.90
2019-04-16T16:58:43.172Z,15.80
2019-04-16T17:01:33.421Z,15.70
2019-04-16T17:04:00.721Z,15.70
2019-04-16T17:06:31.141Z,15.60
2019-04-16T17:09:00.107Z,15.50
2019-04-16T17:11:28.991Z,15.40
2019-04-16T17:14:01.287Z,15.30
2019-04-16T17:16:28.441Z,15.20
2019-04-16T17:18:57.331Z,15.20
2019-04-16T17:21:26.093Z,15.00
2019-04-16T17:23:55.112Z,14.90
2019-04-16T17:26:24.005Z,14.80
2019-04-16T17:28:52.797Z,14.70
2019-04-16T17:31:21.687Z,14.60
2019-04-16T17:33:51.531Z,14.50
2019-04-16T17:36:20.309Z,14.40
2019-04-16T17:38:49.193Z,14.30
2019-04-16T17:41:28.910Z,14.20
2019-04-16T17:44:03.525Z,14.00
2019-04-16T17:46:49.754Z,13.90
2019-04-16T17:49:23.154Z,13.80
2019-04-16T17:52:05.558Z,13.70
2019-04-16T17:54:36.344Z,13.60
2019-04-16T17:57:12.276Z,13.50
2019-04-16T17:59:51.904Z,13.40
2019-04-16T18:02:31.432Z,13.30
2019-04-16T18:05:18.147Z,13.20
2019-04-16T18:08:04.700Z,13.20
2019-04-16T18:10:51.146Z,13.10
2019-04-16T18:13:21.685Z,13.00
2019-04-16T18:15:53.465Z,12.90
2019-04-16T18:18:26.861Z,12.90
2019-04-16T18:21:00.222Z,12.70
2019-04-16T18:23:49.275Z,12.70
2019-04-16T18:26:28.614Z,12.60
2019-04-16T18:29:11.151Z,12.50
2019-04-16T18:32:00.377Z,12.40
2019-04-16T18:34:33.481Z,12.30
2019-04-16T18:37:19.862Z,12.20
2019-04-16T18:40:08.527Z,12.20
2019-04-16T18:42:41.565Z,12.10
2019-04-16T18:45:23.617Z,12.00
2019-04-16T18:48:04.942Z,12.00
2019-04-16T18:50:29.007Z,11.90
2019-04-16T18:53:00.566Z,11.80
2019-04-16T18:55:29.466Z,11.70
2019-04-16T18:57:58.774Z,11.70
2019-04-16T19:00:35.331Z,11.60
2019-04-16T19:03:04.453Z,11.50
2019-04-16T19:05:33.471Z,11.50
2019-04-16T19:08:02.284Z,11.40
2019-04-16T19:10:31.517Z,11.30
2019-04-16T19:13:00.681Z,11.20
2019-04-16T19:15:29.685Z,11.20
2019-04-16T19:17:58.712Z,11.10
2019-04-16T19:20:27.587Z,11.00
2019-04-16T19:22:56.500Z,10.90
2019-04-16T19:25:25.485Z,10.80
2019-04-16T19:27:54.352Z,10.70
2019-04-16T19:30:23.266Z,10.60
2019-04-16T19:32:52.565Z,10.50
2019-04-16T19:35:22.598Z,10.40
2019-04-16T19:37:51.995Z,10.20
2019-04-16T19:40:20.885Z,10.10
2019-04-16T19:42:49.883Z,10.10
2019-04-16T19:45:18.780Z,10.00
2019-04-16T19:47:47.619Z,9.90
2019-04-16T19:50:16.544Z,9.80
2019-04-16T19:52:45.835Z,9.80
2019-04-16T19:55:15.024Z,9.70
2019-04-16T19:57:44.688Z,9.60
2019-04-16T20:00:13.719Z,9.60
2019-04-16T20:02:42.643Z,9.50
2019-04-16T20:05:11.448Z,9.40
2019-04-16T20:07:41.474Z,9.40
2019-04-16T20:10:10.438Z,9.30
2019-04-16T20:12:39.224Z,9.30
2019-04-16T20:15:09.670Z,9.20
2019-04-16T20:17:38.869Z,9.20
2019-04-16T20:20:07.820Z,9.10
2019-04-16T20:22:36.637Z,9.00
2019-04-16T20:25:06.510Z,9.00
2019-04-16T20:27:36.192Z,8.90
2019-04-16T20:30:08.516Z,8.80
2019-04-16T20:32:37.423Z,8.80
2019-04-16T20:35:06.226Z,8.80
2019-04-16T20:37:34.900Z,8.80
2019-04-16T20:40:04.616Z,8.80
2019-04-16T20:42:33.516Z,8.70
2019-04-16T20:45:02.405Z,8.70
2019-04-16T20:47:31.284Z,8.70
2019-04-16T20:50:03.946Z,8.60
2019-04-16T20:52:30.877Z,8.60
2019-04-16T20:55:01.244Z,8.60
2019-04-16T20:57:30.032Z,8.60
2019-04-16T20:59:59.879Z,8.60
2019-04-16T21:02:30.477Z,8.50
2019-04-16T21:05:02.596Z,8.50
2019-04-16T21:07:29.701Z,8.40
2019-04-16T21:09:59.867Z,8.40
2019-04-16T21:12:28.886Z,8.30
2019-04-16T21:14:57.700Z,8.30
2019-04-16T21:17:26.691Z,8.30
2019-04-16T21:19:55.777Z,8.20
2019-04-16T21:22:24.984Z,8.20
2019-04-16T21:24:55.723Z,8.20
2019-04-16T21:27:24.613Z,8.10
2019-04-16T21:29:53.469Z,8.10
2019-04-16T21:32:24.033Z,8.10
2019-04-16T21:34:59.893Z,8.00
2019-04-16T21:37:41.272Z,8.00
2019-04-16T21:40:11.179Z,7.90
2019-04-16T21:42:40.047Z,7.80
2019-04-16T21:45:08.978Z,7.80
2019-04-16T21:47:37.850Z,7.70
2019-04-16T21:50:08.555Z,7.70
2019-04-16T21:52:37.568Z,7.70
2019-04-16T21:55:07.899Z,7.60
2019-04-16T21:57:36.666Z,7.60
2019-04-16T22:00:09.576Z,7.50
2019-04-16T22:02:39.978Z,7.50
2019-04-16T22:05:09.490Z,7.40
2019-04-16T22:07:38.422Z,7.40
2019-04-16T22:10:07.385Z,7.40
2019-04-16T22:12:36.276Z,7.30
2019-04-16T22:15:07.455Z,7.30
2019-04-16T22:17:36.801Z,7.20
2019-04-16T22:20:07.074Z,7.20
2019-04-16T22:22:36.025Z,7.20
2019-04-16T22:25:06.251Z,7.10
2019-04-16T22:27:36.860Z,7.10
2019-04-16T22:30:07.186Z,7.00
2019-04-16T22:32:36.148Z,7.00
2019-04-16T22:35:06.539Z,6.90
2019-04-16T22:37:35.469Z,6.90
2019-04-16T22:40:25.970Z,6.80
2019-04-16T22:43:06.233Z,6.80
2019-04-16T22:45:36.753Z,6.70
2019-04-16T22:48:05.642Z,6.70
2019-04-16T22:50:34.719Z,6.60
2019-04-16T22:53:05.169Z,6.60
2019-04-16T22:55:34.156Z,6.60
2019-04-16T22:58:04.785Z,6.50
2019-04-16T23:00:35.531Z,6.50
2019-04-16T23:03:04.804Z,6.50
2019-04-16T23:05:34.422Z,6.40
2019-04-16T23:08:03.433Z,6.40
2019-04-16T23:10:32.311Z,6.40
2019-04-16T23:13:01.673Z,6.30
2019-04-16T23:15:31.022Z,6.30
2019-04-16T23:17:59.921Z,6.30
2019-04-16T23:20:30.062Z,6.30
2019-04-16T23:22:59.411Z,6.30
2019-04-16T23:25:28.336Z,6.30
2019-04-16T23:27:57.707Z,6.20
2019-04-16T23:30:26.712Z,6.20
2019-04-16T23:32:58.994Z,6.20
2019-04-16T23:35:26.264Z,6.10
2019-04-16T23:37:59.248Z,6.10
2019-04-16T23:40:27.110Z,6.10
2019-04-16T23:42:58.032Z,6.00
2019-04-16T23:45:34.391Z,6.00
2019-04-16T23:48:14.179Z,6.00
2019-04-16T23:50:45.171Z,6.00
2019-04-16T23:53:17.979Z,6.00
2019-04-16T23:56:00.807Z,6.00
2019-04-16T23:58:37.173Z,5.90
